createdAt,value
2018-11-29T00:02:13.277Z,91.37
2018-11-29T00:04:43.584Z,90.93
2018-11-29T00:07:14.609Z,91.27
2018-11-29T00:09:46.869Z,92.04
2018-11-29T00:12:19.504Z,92.86
2018-11-29T00:14:49.367Z,93.06
2018-11-29T00:17:20.340Z,93.74
2018-11-29T00:19:53.575Z,93.80
2018-11-29T00:22:27.092Z,94.37
2018-11-29T00:25:05.928Z,94.34
2018-11-29T00:27:39.058Z,93.87
2018-11-29T00:30:17.002Z,94.61
2018-11-29T00:32:49.999Z,94.92
2018-11-29T00:35:19.616Z,95.01
2018-11-29T00:37:50.832Z,95.65
2018-11-29T00:40:22.542Z,95.90
2018-11-29T00:42:52.847Z,95.74
2018-11-29T00:45:24.232Z,95.91
2018-11-29T00:47:55.493Z,96.57
2018-11-29T00:50:25.520Z,96.77
2018-11-29T00:53:03.050Z,97.27
2018-11-29T00:55:33.513Z,97.38
2018-11-29T00:58:04.819Z,97.91
2018-11-29T01:00:34.568Z,98.15
2018-11-29T01:03:05.624Z,98.29
2018-11-29T01:05:36.588Z,98.91
2018-11-29T01:08:06.891Z,99.13
2018-11-29T01:10:36.728Z,99.38
2018-11-29T01:13:07.824Z,99.44
2018-11-29T01:15:38.846Z,99.89
2018-11-29T01:18:08.539Z,100.00
2018-11-29T01:20:39.703Z,100.00
2018-11-29T01:23:10.817Z,100.00
2018-11-29T01:25:41.612Z,100.00
2018-11-29T01:28:12.966Z,100.00
2018-11-29T01:30:50.357Z,100.00
2018-11-29T01:33:20.483Z,100.00
2018-11-29T01:35:53.579Z,100.00
2018-11-29T01:38:25.867Z,100.00
2018-11-29T01:40:56.852Z,100.00
2018-11-29T01:43:27.923Z,100.00
2018-11-29T01:45:58.894Z,100.00
2018-11-29T01:48:28.769Z,100.00
2018-11-29T01:50:59.815Z,100.00
2018-11-29T01:53:30.300Z,100.00
2018-11-29T01:56:00.765Z,100.00
2018-11-29T01:58:30.336Z,100.00
2018-11-29T02:01:04.686Z,100.00
2018-11-29T02:03:34.933Z,100.00
2018-11-29T02:06:06.811Z,100.00
2018-11-29T02:08:36.999Z,100.00
2018-11-29T02:11:07.240Z,100.00
2018-11-29T02:13:38.004Z,100.00
2018-11-29T02:16:09.050Z,100.00
2018-11-29T02:18:39.016Z,100.00
2018-11-29T02:21:10.081Z,100.00
2018-11-29T02:23:41.095Z,100.00
2018-11-29T02:26:11.220Z,100.00
2018-11-29T02:28:47.305Z,100.00
2018-11-29T02:31:18.846Z,100.00
2018-11-29T02:33:49.172Z,100.00
2018-11-29T02:36:19.737Z,100.00
2018-11-29T02:38:51.110Z,100.00
2018-11-29T02:41:23.215Z,100.00
2018-11-29T02:43:55.018Z,100.00
2018-11-29T02:46:26.051Z,100.00
2018-11-29T02:48:57.153Z,100.00
2018-11-29T02:51:29.181Z,100.00
2018-11-29T02:54:01.052Z,100.00
2018-11-29T02:56:32.061Z,100.00
2018-11-29T02:59:02.905Z,100.00
2018-11-29T03:01:33.200Z,100.00
2018-11-29T03:04:04.016Z,100.00
2018-11-29T03:06:34.596Z,100.00
2018-11-29T03:09:08.017Z,100.00
2018-11-29T03:11:38.298Z,100.00
2018-11-29T03:14:09.151Z,100.00
2018-11-29T03:16:40.442Z,100.00
2018-11-29T03:19:10.086Z,100.00
2018-11-29T03:21:42.279Z,100.00
2018-11-29T03:24:13.202Z,100.00
2018-11-29T03:26:45.363Z,100.00
2018-11-29T03:29:17.299Z,100.00
2018-11-29T03:31:49.352Z,100.00
2018-11-29T03:34:19.902Z,100.00
2018-11-29T03:36:57.006Z,100.00
2018-11-29T03:39:27.956Z,100.00
2018-11-29T03:41:58.525Z,100.00
2018-11-29T03:44:29.421Z,100.00
2018-11-29T03:47:00.014Z,100.00
2018-11-29T03:49:30.659Z,100.00
2018-11-29T03:52:01.179Z,100.00
2018-11-29T03:54:32.324Z,100.00
2018-11-29T03:57:03.213Z,100.00
2018-11-29T03:59:34.040Z,100.00
2018-11-29T04:02:04.605Z,100.00
2018-11-29T04:04:35.528Z,100.00
2018-11-29T04:07:09.302Z,100.00
2018-11-29T04:09:39.447Z,100.00
2018-11-29T04:12:10.585Z,100.00
2018-11-29T04:14:40.547Z,100.00
2018-11-29T04:17:11.391Z,100.00
2018-11-29T04:19:41.601Z,100.00
2018-11-29T04:22:12.478Z,100.00
2018-11-29T04:24:42.711Z,100.00
2018-11-29T04:27:13.364Z,100.00
2018-11-29T04:29:46.836Z,100.00
2018-11-29T04:32:17.535Z,100.00
2018-11-29T04:34:48.712Z,100.00
2018-11-29T04:37:18.502Z,100.00
2018-11-29T04:39:49.582Z,100.00
2018-11-29T04:42:19.904Z,100.00
2018-11-29T04:44:50.597Z,100.00
2018-11-29T04:47:20.315Z,100.00
2018-11-29T04:49:52.663Z,100.00
2018-11-29T04:52:23.589Z,100.00
2018-11-29T04:54:53.559Z,100.00
2018-11-29T04:57:23.605Z,100.00
2018-11-29T04:59:55.773Z,100.00
2018-11-29T05:02:26.676Z,100.00
2018-11-29T05:04:57.693Z,100.00
2018-11-29T05:07:27.629Z,100.00
2018-11-29T05:09:58.764Z,100.00
2018-11-29T05:12:29.683Z,100.00
2018-11-29T05:14:59.721Z,100.00
2018-11-29T05:17:30.768Z,100.00
2018-11-29T05:20:00.802Z,100.00
2018-11-29T05:22:31.845Z,100.00
2018-11-29T05:25:01.836Z,100.00
2018-11-29T05:27:35.649Z,100.00
2018-11-29T05:30:10.508Z,100.00
2018-11-29T05:32:40.809Z,100.00
2018-11-29T05:35:11.752Z,100.00
2018-11-29T05:37:41.984Z,100.00
2018-11-29T05:40:13.559Z,100.00
2018-11-29T05:42:45.745Z,100.00
2018-11-29T05:45:16.609Z,100.00
2018-11-29T05:47:47.048Z,100.00
2018-11-29T05:50:17.997Z,100.00
2018-11-29T05:52:48.770Z,100.00
2018-11-29T05:55:19.004Z,100.00
2018-11-29T05:57:50.190Z,100.00
2018-11-29T06:00:19.945Z,100.00
2018-11-29T06:02:51.798Z,100.00
2018-11-29T06:05:22.613Z,100.00
2018-11-29T06:07:53.151Z,100.00
2018-11-29T06:10:23.094Z,99.95
2018-11-29T06:12:55.222Z,99.67
2018-11-29T06:15:25.816Z,99.07
2018-11-29T06:17:56.748Z,98.45
2018-11-29T06:20:26.786Z,98.38
2018-11-29T06:22:56.993Z,98.32
2018-11-29T06:25:28.317Z,97.99
2018-11-29T06:27:58.139Z,97.82
2018-11-29T06:30:29.100Z,97.46
2018-11-29T06:32:59.119Z,97.51
2018-11-29T06:35:29.264Z,97.24
2018-11-29T06:38:00.079Z,97.05
2018-11-29T06:40:31.197Z,97.17
2018-11-29T06:43:01.847Z,97.22
2018-11-29T06:45:32.137Z,97.51
2018-11-29T06:48:03.080Z,97.10
2018-11-29T06:50:33.247Z,96.62
2018-11-29T06:53:04.648Z,96.05
2018-11-29T06:55:35.096Z,95.96
2018-11-29T06:58:06.840Z,94.94
2018-11-29T07:00:36.498Z,94.55
2018-11-29T07:03:07.406Z,93.06
2018-11-29T07:05:38.316Z,92.35
2018-11-29T07:08:08.269Z,91.86
2018-11-29T07:10:39.305Z,90.99
2018-11-29T07:13:10.598Z,90.42
2018-11-29T07:15:41.032Z,90.32
2018-11-29T07:18:15.164Z,89.86
2018-11-29T07:20:55.061Z,89.43
2018-11-29T07:23:26.529Z,89.94
2018-11-29T07:25:56.796Z,90.44
2018-11-29T07:28:26.445Z,91.06
2018-11-29T07:30:57.416Z,91.08
2018-11-29T07:33:29.390Z,91.39
2018-11-29T07:36:01.444Z,91.34
2018-11-29T07:38:32.330Z,90.99
2018-11-29T07:41:03.124Z,90.96
2018-11-29T07:43:33.479Z,90.74
2018-11-29T07:46:04.178Z,90.67
2018-11-29T07:48:34.762Z,90.14
2018-11-29T07:51:05.593Z,89.46
2018-11-29T07:53:35.838Z,89.25
2018-11-29T07:56:06.539Z,88.97
2018-11-29T07:58:37.708Z,88.79
2018-11-29T08:01:08.466Z,88.65
2018-11-29T08:03:38.433Z,88.92
2018-11-29T08:06:08.478Z,88.66
2018-11-29T08:08:40.337Z,89.33
2018-11-29T08:11:10.553Z,89.04
2018-11-29T08:13:41.780Z,88.81
2018-11-29T08:16:12.665Z,88.48
2018-11-29T08:18:42.597Z,88.68
2018-11-29T08:21:13.607Z,89.37
2018-11-29T08:23:44.936Z,89.53
2018-11-29T08:26:14.640Z,89.17
2018-11-29T08:28:46.471Z,90.67
2018-11-29T08:31:16.629Z,91.01
2018-11-29T08:33:46.747Z,90.94
2018-11-29T08:36:17.640Z,90.83
2018-11-29T08:38:48.604Z,91.03
2018-11-29T08:41:18.902Z,90.01
2018-11-29T08:43:48.638Z,90.07
2018-11-29T08:46:20.195Z,89.97
2018-11-29T08:48:50.715Z,89.44
2018-11-29T08:51:20.521Z,89.98
2018-11-29T08:53:51.261Z,89.62
2018-11-29T08:56:20.946Z,89.65
2018-11-29T08:58:52.776Z,89.34
2018-11-29T09:01:23.920Z,88.96
2018-11-29T09:03:54.779Z,89.36
2018-11-29T09:06:25.249Z,88.53
2018-11-29T09:08:57.763Z,88.78
2018-11-29T09:11:30.274Z,88.90
2018-11-29T09:14:00.788Z,88.42
2018-11-29T09:16:30.680Z,88.13
2018-11-29T09:19:02.912Z,87.17
2018-11-29T09:21:38.052Z,86.54
2018-11-29T09:24:09.823Z,86.44
2018-11-29T09:26:40.248Z,85.79
2018-11-29T09:29:10.972Z,85.41
2018-11-29T09:31:41.903Z,84.22
2018-11-29T09:34:13.054Z,83.81
2018-11-29T09:36:42.991Z,83.57
2018-11-29T09:39:13.996Z,83.16
2018-11-29T09:41:44.095Z,82.55
2018-11-29T09:44:17.784Z,81.53
2018-11-29T09:46:49.033Z,80.97
2018-11-29T09:49:19.957Z,78.85
2018-11-29T09:51:50.066Z,78.60
2018-11-29T09:54:20.282Z,77.84
2018-11-29T09:56:52.186Z,77.42
2018-11-29T09:59:24.068Z,76.89
2018-11-29T10:01:55.155Z,75.78
2018-11-29T10:04:26.043Z,74.93
2018-11-29T10:06:56.735Z,74.62
2018-11-29T10:09:26.961Z,73.28
2018-11-29T10:11:57.910Z,72.87
2018-11-29T10:14:28.638Z,73.05
2018-11-29T10:16:59.110Z,72.28
2018-11-29T10:19:30.120Z,71.67
2018-11-29T10:22:00.914Z,71.22
2018-11-29T10:24:31.553Z,70.05
2018-11-29T10:27:01.977Z,69.34
2018-11-29T10:29:33.451Z,69.70
2018-11-29T10:32:04.085Z,69.44
2018-11-29T10:34:34.788Z,68.92
2018-11-29T10:37:05.728Z,68.97
2018-11-29T10:39:35.305Z,67.75
2018-11-29T10:42:05.130Z,66.52
2018-11-29T10:44:35.832Z,66.15
2018-11-29T10:47:08.374Z,65.96
2018-11-29T10:49:38.328Z,66.39
2018-11-29T10:52:09.733Z,66.98
2018-11-29T10:54:39.859Z,66.31
2018-11-29T10:57:10.437Z,66.40
2018-11-29T10:59:40.980Z,66.72
2018-11-29T11:02:18.241Z,66.15
2018-11-29T11:04:48.435Z,65.93
2018-11-29T11:07:20.227Z,65.67
2018-11-29T11:09:52.646Z,64.92
2018-11-29T11:12:23.321Z,63.86
2018-11-29T11:14:53.370Z,63.55
2018-11-29T11:17:23.452Z,64.19
2018-11-29T11:19:54.512Z,63.05
2018-11-29T11:22:26.405Z,62.36
2018-11-29T11:24:56.336Z,62.46
2018-11-29T11:27:26.379Z,62.17
2018-11-29T11:29:57.424Z,62.54
2018-11-29T11:32:29.320Z,61.94
2018-11-29T11:34:59.540Z,61.74
2018-11-29T11:37:30.396Z,61.53
2018-11-29T11:40:00.433Z,61.22
2018-11-29T11:42:30.612Z,62.01
2018-11-29T11:45:02.306Z,62.28
2018-11-29T11:47:33.515Z,62.87
2018-11-29T11:50:03.484Z,61.90
2018-11-29T11:52:34.442Z,62.24
2018-11-29T11:55:07.140Z,63.66
2018-11-29T11:57:38.615Z,62.31
2018-11-29T12:00:16.677Z,63.06
2018-11-29T12:02:49.969Z,63.61
2018-11-29T12:05:19.592Z,64.17
2018-11-29T12:07:50.854Z,64.51
2018-11-29T12:10:20.557Z,64.42
2018-11-29T12:12:50.521Z,63.96
2018-11-29T12:15:20.672Z,63.54
2018-11-29T12:17:52.678Z,64.13
2018-11-29T12:20:23.745Z,64.57
2018-11-29T12:22:53.705Z,65.41
2018-11-29T12:25:23.719Z,66.04
2018-11-29T12:27:54.682Z,65.39
2018-11-29T12:30:30.340Z,65.65
2018-11-29T12:33:03.848Z,65.26
2018-11-29T12:35:33.848Z,64.35
2018-11-29T12:38:03.672Z,64.91
2018-11-29T12:40:35.911Z,64.49
2018-11-29T12:43:07.113Z,64.27
2018-11-29T12:45:36.841Z,64.20
2018-11-29T12:48:06.917Z,64.68
2018-11-29T12:50:40.921Z,64.56
2018-11-29T12:53:11.830Z,64.63
2018-11-29T12:55:43.943Z,63.94
2018-11-29T12:58:13.539Z,64.11
2018-11-29T13:00:43.920Z,63.94
2018-11-29T13:03:13.906Z,64.71
2018-11-29T13:05:44.675Z,64.70
2018-11-29T13:08:17.759Z,64.57
2018-11-29T13:10:48.811Z,64.88
2018-11-29T13:13:19.997Z,64.71
2018-11-29T13:15:51.278Z,64.38
2018-11-29T13:18:20.928Z,65.13
2018-11-29T13:20:58.708Z,64.86
2018-11-29T13:23:24.856Z,64.48
2018-11-29T13:25:56.619Z,64.35
2018-11-29T13:28:27.261Z,64.67
2018-11-29T13:30:56.908Z,63.92
2018-11-29T13:36:16.383Z,63.93
2018-11-29T13:38:48.280Z,63.73
2018-11-29T13:41:19.068Z,63.58
2018-11-29T13:43:49.731Z,64.10
2018-11-29T13:46:22.035Z,63.90
2018-11-29T13:48:53.199Z,63.30
2018-11-29T13:51:24.189Z,63.67
2018-11-29T13:53:55.273Z,62.02
2018-11-29T13:56:25.260Z,61.96
2018-11-29T13:58:58.395Z,60.63
2018-11-29T14:01:27.993Z,59.80
2018-11-29T14:03:59.238Z,58.80
2018-11-29T14:06:29.702Z,58.14
2018-11-29T14:09:00.327Z,58.08
2018-11-29T14:11:30.239Z,57.89
2018-11-29T14:14:01.244Z,57.48
2018-11-29T14:16:31.590Z,58.21
2018-11-29T14:19:01.988Z,58.39
2018-11-29T14:21:32.371Z,58.54
2018-11-29T14:24:03.030Z,58.77
2018-11-29T14:26:33.253Z,59.62
2018-11-29T14:29:04.297Z,60.05
2018-11-29T14:31:34.719Z,60.96
2018-11-29T14:34:05.410Z,61.91
2018-11-29T14:36:35.487Z,62.72
2018-11-29T14:39:08.792Z,64.26
2018-11-29T14:41:43.182Z,65.76
2018-11-29T14:44:13.464Z,66.37
2018-11-29T14:46:44.344Z,67.59
2018-11-29T14:49:20.955Z,68.11
2018-11-29T14:51:51.275Z,68.95
2018-11-29T14:54:21.418Z,69.00
2018-11-29T14:56:52.625Z,69.47
2018-11-29T14:59:24.686Z,70.15
2018-11-29T15:01:54.264Z,69.55
2018-11-29T15:04:24.602Z,70.23
2018-11-29T15:06:55.412Z,71.42
2018-11-29T15:09:29.633Z,71.54
2018-11-29T15:11:59.612Z,71.61
2018-11-29T15:14:31.426Z,71.63
2018-11-29T15:17:01.654Z,72.58
2018-11-29T15:19:32.067Z,73.08
2018-11-29T15:22:02.534Z,73.51
2018-11-29T15:24:33.072Z,73.15
2018-11-29T15:27:03.463Z,72.29
2018-11-29T15:29:33.639Z,72.59
2018-11-29T15:32:05.048Z,72.97
2018-11-29T15:34:35.024Z,73.69
2018-11-29T15:37:05.210Z,74.06
2018-11-29T15:39:37.419Z,73.70
2018-11-29T15:42:09.144Z,74.43
2018-11-29T15:44:40.364Z,74.51
2018-11-29T15:47:10.384Z,74.78
2018-11-29T15:49:41.247Z,74.52
2018-11-29T15:52:15.184Z,74.70
2018-11-29T15:54:45.359Z,75.36
2018-11-29T15:57:16.405Z,74.42
2018-11-29T15:59:47.216Z,74.58
2018-11-29T16:02:17.359Z,75.53
2018-11-29T16:04:48.469Z,75.49
2018-11-29T16:07:18.060Z,75.53
2018-11-29T16:09:55.370Z,75.16
2018-11-29T16:12:27.614Z,75.67
2018-11-29T16:14:59.304Z,75.86
2018-11-29T16:17:29.928Z,74.94
2018-11-29T16:20:01.105Z,74.74
2018-11-29T16:22:31.411Z,74.64
2018-11-29T16:25:01.935Z,74.76
2018-11-29T16:27:32.904Z,75.13
2018-11-29T16:30:03.374Z,74.91
2018-11-29T16:32:33.925Z,75.05
2018-11-29T16:35:10.295Z,74.83
2018-11-29T16:37:41.535Z,74.85
2018-11-29T16:40:11.511Z,74.30
2018-11-29T16:42:42.637Z,74.36
2018-11-29T16:45:14.286Z,74.84
2018-11-29T16:47:44.723Z,74.59
2018-11-29T16:50:17.111Z,74.22
2018-11-29T16:52:46.767Z,74.06
2018-11-29T16:55:17.706Z,74.60
2018-11-29T16:57:49.622Z,74.22
2018-11-29T17:00:22.419Z,74.40
2018-11-29T17:02:52.567Z,74.61
2018-11-29T17:05:24.514Z,74.58
2018-11-29T17:07:56.610Z,74.32
2018-11-29T17:10:27.078Z,74.13
2018-11-29T17:13:05.978Z,73.97
2018-11-29T17:15:37.515Z,74.58
2018-11-29T17:18:07.846Z,75.70
2018-11-29T17:20:38.711Z,76.21
2018-11-29T17:23:10.073Z,77.41
2018-11-29T17:25:39.881Z,77.86
2018-11-29T17:28:10.728Z,78.22
2018-11-29T17:30:41.808Z,78.33
2018-11-29T17:33:11.761Z,78.91
2018-11-29T17:35:42.817Z,79.50
2018-11-29T17:38:12.887Z,79.78
2018-11-29T17:40:43.677Z,79.73
2018-11-29T17:43:14.796Z,80.37
2018-11-29T17:45:47.368Z,81.34
2018-11-29T17:48:17.394Z,81.50
2018-11-29T17:50:47.726Z,82.48
2018-11-29T17:53:17.985Z,82.94
2018-11-29T17:55:49.673Z,83.80
2018-11-29T17:58:21.316Z,83.89
2018-11-29T18:00:54.992Z,84.28
2018-11-29T18:03:29.271Z,84.77
2018-11-29T18:05:58.960Z,85.51
2018-11-29T18:08:30.043Z,85.77
2018-11-29T18:11:00.249Z,85.92
2018-11-29T18:13:34.153Z,85.90
2018-11-29T18:16:04.404Z,85.54
2018-11-29T18:18:36.935Z,85.46
2018-11-29T18:21:07.984Z,86.36
2018-11-29T18:23:38.966Z,86.74
2018-11-29T18:26:11.254Z,86.69
2018-11-29T18:28:42.964Z,87.48
2018-11-29T18:31:13.061Z,87.75
2018-11-29T18:33:46.599Z,88.10
2018-11-29T18:36:21.035Z,88.01
2018-11-29T18:38:51.200Z,88.36
2018-11-29T18:41:20.894Z,88.53
2018-11-29T18:43:53.452Z,88.10
2018-11-29T18:46:23.044Z,88.42
2018-11-29T18:48:55.992Z,88.83
2018-11-29T18:51:27.416Z,88.56
2018-11-29T18:53:57.105Z,89.25
2018-11-29T18:56:28.235Z,89.34
2018-11-29T18:58:59.089Z,89.42
2018-11-29T19:01:29.116Z,89.11
2018-11-29T19:04:00.672Z,89.82
2018-11-29T19:06:31.108Z,89.92
2018-11-29T19:09:04.110Z,90.04
2018-11-29T19:11:37.293Z,89.75
2018-11-29T19:14:10.283Z,90.24
2018-11-29T19:16:40.352Z,90.37
2018-11-29T19:19:10.197Z,90.50
2018-11-29T19:21:40.322Z,90.52
2018-11-29T19:24:11.247Z,91.09
2018-11-29T19:26:42.215Z,91.16
2018-11-29T19:29:14.548Z,91.09
2018-11-29T19:31:45.159Z,91.35
2018-11-29T19:34:15.377Z,91.15
2018-11-29T19:36:46.043Z,91.33
2018-11-29T19:39:16.438Z,91.77
2018-11-29T19:41:53.634Z,91.90
2018-11-29T19:44:24.420Z,92.22
2018-11-29T19:46:56.948Z,92.46
2018-11-29T19:49:27.266Z,92.17
2018-11-29T19:51:57.459Z,92.39
2018-11-29T19:54:28.517Z,92.84
2018-11-29T19:56:59.472Z,92.17
2018-11-29T19:59:30.667Z,92.29
2018-11-29T20:02:03.479Z,92.10
2018-11-29T20:04:34.399Z,92.37
2018-11-29T20:07:05.524Z,91.89
2018-11-29T20:09:37.681Z,92.18
2018-11-29T20:12:08.524Z,92.52
2018-11-29T20:14:39.113Z,92.50
2018-11-29T20:17:09.543Z,92.39
2018-11-29T20:19:40.622Z,92.08
2018-11-29T20:22:10.679Z,92.50
2018-11-29T20:24:41.576Z,92.32
2018-11-29T20:27:12.579Z,91.75
2018-11-29T20:29:42.580Z,91.68
2018-11-29T20:32:13.724Z,91.46
2018-11-29T20:34:48.241Z,91.34
2018-11-29T20:37:17.997Z,91.47
2018-11-29T20:39:48.574Z,91.26
2018-11-29T20:42:18.280Z,91.71
2018-11-29T20:44:50.402Z,91.93
2018-11-29T20:47:21.680Z,92.28
2018-11-29T20:49:53.674Z,92.62
2018-11-29T20:52:25.604Z,92.54
2018-11-29T20:54:57.601Z,92.25
2018-11-29T20:57:27.576Z,92.64
2018-11-29T20:59:58.608Z,92.64
2018-11-29T21:02:28.681Z,92.90
2018-11-29T21:04:59.654Z,92.70
2018-11-29T21:07:29.664Z,93.16
2018-11-29T21:10:03.043Z,92.89
2018-11-29T21:12:31.662Z,93.29
2018-11-29T21:15:02.531Z,93.19
2018-11-29T21:17:34.797Z,92.79
2018-11-29T21:20:08.334Z,93.22
2018-11-29T21:22:39.379Z,93.07
2018-11-29T21:25:17.814Z,92.81
2018-11-29T21:27:49.774Z,93.36
2018-11-29T21:30:21.868Z,92.97
2018-11-29T21:32:51.647Z,92.78
2018-11-29T21:35:22.917Z,92.55
2018-11-29T21:37:54.907Z,92.36
2018-11-29T21:40:27.382Z,93.13
2018-11-29T21:42:58.964Z,93.10
2018-11-29T21:45:30.045Z,92.83
2018-11-29T21:48:00.592Z,92.63
2018-11-29T21:50:30.902Z,92.32
2018-11-29T21:53:01.802Z,92.09
2018-11-29T21:55:32.650Z,92.56
2018-11-29T21:58:02.944Z,92.54
2018-11-29T22:00:34.107Z,92.41
2018-11-29T22:03:04.776Z,92.30
2018-11-29T22:05:34.848Z,92.23
2018-11-29T22:08:05.698Z,92.62
2018-11-29T22:10:36.020Z,92.54
2018-11-29T22:13:06.511Z,92.04
2018-11-29T22:15:36.899Z,92.32
2018-11-29T22:18:21.735Z,92.19
2018-11-29T22:20:55.875Z,91.93
2018-11-29T22:23:25.856Z,92.35
2018-11-29T22:25:58.283Z,92.73
2018-11-29T22:28:30.476Z,92.37
2018-11-29T22:31:00.881Z,91.40
2018-11-29T22:33:33.032Z,91.22
2018-11-29T22:36:06.301Z,90.86
2018-11-29T22:38:38.163Z,90.62
2018-11-29T22:41:09.168Z,90.52
2018-11-29T22:43:39.190Z,91.07
2018-11-29T22:46:10.087Z,91.41
2018-11-29T22:48:40.320Z,91.47
2018-11-29T22:51:11.015Z,91.46
2018-11-29T22:53:41.281Z,91.09
2018-11-29T22:56:14.859Z,90.30
2018-11-29T22:58:45.843Z,90.42
2018-11-29T23:01:28.451Z,90.18
2018-11-29T23:03:59.245Z,90.19
2018-11-29T23:06:30.153Z,90.02
2018-11-29T23:09:01.156Z,89.69
2018-11-29T23:11:31.351Z,89.91
2018-11-29T23:14:01.225Z,89.13
2018-11-29T23:16:32.271Z,89.36
2018-11-29T23:19:04.140Z,89.10
2018-11-29T23:21:36.221Z,89.72
2018-11-29T23:24:07.263Z,88.61
2018-11-29T23:26:38.585Z,87.92
2018-11-29T23:29:08.199Z,87.89
2018-11-29T23:31:39.229Z,88.16
2018-11-29T23:34:12.306Z,87.73
2018-11-29T23:36:43.632Z,88.25
2018-11-29T23:39:15.026Z,88.56
2018-11-29T23:41:47.480Z,88.22
2018-11-29T23:44:18.063Z,87.79
2018-11-29T23:46:50.679Z,87.44
2018-11-29T23:49:22.567Z,87.07
2018-11-29T23:51:54.756Z,87.48
2018-11-29T23:54:27.372Z,87.13
2018-11-29T23:56:58.325Z,87.32
2018-11-29T23:59:29.598Z,87.54
